Time;durP1;ratioP1;P1;durP2;ratioP2;P2;SDS_P1;SDS_P2;PMS_P1;PMS_P2;Temp;Humidity;BMP_temperature;BMP_pressure;BME280_temperature;BME280_humidity;BME280_pressure;Samples;Min_cycle;Max_cycle;Signal;HPM_P1;HPM_P2
2023/02/11 00:00:20;;;;;;;26.80;15.10;;;;;;;0.55;70.80;100407.03;5046139;28;20035;-70
2023/02/11 00:02:46;;;;;;;27.48;16.08;;;;;;;0.41;71.29;100411.63;5062455;28;20043;-69
2023/02/11 00:05:11;;;;;;;27.98;15.25;;;;;;;0.50;71.04;100406.31;5062371;28;20369;-68
2023/02/11 00:07:37;;;;;;;27.55;15.27;;;;;;;0.42;71.18;100410.75;5050055;28;20035;-69
2023/02/11 00:10:03;;;;;;;26.92;15.20;;;;;;;0.31;71.99;100405.88;5041847;28;20175;-68
2023/02/11 00:12:29;;;;;;;25.05;15.02;;;;;;;0.36;71.43;100412.56;5058370;28;20021;-69
2023/02/11 00:14:54;;;;;;;22.75;14.82;;;;;;;0.28;71.42;100411.91;5047059;28;20577;-69
2023/02/11 00:17:20;;;;;;;24.77;15.10;;;;;;;0.18;71.81;100398.50;5055253;28;20027;-69
2023/02/11 00:19:52;;;;;;;26.83;14.38;;;;;;;0.28;71.78;100395.72;5057711;28;20112;-69
2023/02/11 00:22:17;;;;;;;25.15;14.65;;;;;;;0.28;71.34;100405.97;5060474;28;20487;-69
2023/02/11 00:24:43;;;;;;;25.63;14.40;;;;;;;0.23;71.27;100405.22;5063113;28;20105;-69
2023/02/11 00:27:09;;;;;;;25.30;13.80;;;;;;;0.13;71.66;100410.56;5062801;28;20028;-69
2023/02/11 00:29:35;;;;;;;23.80;14.02;;;;;;;0.10;71.47;100404.66;5056037;28;20458;-68
2023/02/11 00:32:04;;;;;;;26.98;14.50;;;;;;;-0.26;71.60;100343.22;5058936;28;20051;-69
2023/02/11 00:34:33;;;;;;;25.13;14.13;;;;;;;0.15;71.13;100403.69;5055684;28;21217;-69
2023/02/11 00:36:58;;;;;;;24.38;14.20;;;;;;;0.02;71.53;100409.97;5039637;28;20029;-69
2023/02/11 00:39:24;;;;;;;27.42;13.98;;;;;;;-0.45;71.17;100341.06;5028540;28;21163;-69
2023/02/11 00:41:49;;;;;;;24.60;14.55;;;;;;;-0.52;71.68;100326.75;5046392;28;20427;-69
2023/02/11 00:44:15;;;;;;;24.95;15.27;;;;;;;-0.12;71.97;100397.47;5049945;28;20039;-69
2023/02/11 00:46:40;;;;;;;22.73;14.10;;;;;;;-0.22;72.43;100389.16;5036757;28;20508;-69
2023/02/11 00:49:06;;;;;;;24.67;14.88;;;;;;;-0.24;72.64;100390.06;5031418;28;20047;-68
2023/02/11 00:51:31;;;;;;;23.92;13.50;;;;;;;-0.30;73.29;100392.75;5030562;28;20028;-69
2023/02/11 00:53:57;;;;;;;28.83;15.88;;;;;;;-0.69;72.83;100327.09;5036337;28;20407;-69
2023/02/11 00:56:22;;;;;;;24.15;14.60;;;;;;;-0.23;73.70;100395.13;5041121;28;20509;-68
2023/02/11 00:58:48;;;;;;;25.58;13.85;;;;;;;-0.22;74.32;100390.84;5042413;28;20703;-69
2023/02/11 01:01:13;;;;;;;26.75;14.43;;;;;;;-0.13;73.74;100390.66;5082583;28;20063;-68
2023/02/11 01:03:39;;;;;;;26.23;15.23;;;;;;;-0.14;74.00;100393.28;5049896;28;20036;-69
2023/02/11 01:06:07;;;;;;;26.05;14.77;;;;;;;-0.22;73.63;100373.81;5045706;28;20043;-69
2023/02/11 01:08:32;;;;;;;23.77;13.70;;;;;;;-0.52;72.57;100319.06;5046989;28;20158;-68
2023/02/11 01:11:00;;;;;;;24.55;13.23;;;;;;;-0.21;73.62;100380.59;5060375;28;20373;-68
2023/02/11 01:13:26;;;;;;;27.10;13.85;;;;;;;-0.22;74.54;100386.59;5019489;28;20530;-70
2023/02/11 01:15:52;;;;;;;24.35;13.85;;;;;;;-0.60;73.84;100329.47;5049962;28;20033;-70
2023/02/11 01:18:18;;;;;;;24.05;13.70;;;;;;;-0.32;74.72;100395.34;5059548;28;20369;-70
2023/02/11 01:20:43;;;;;;;26.95;14.15;;;;;;;-0.34;74.31;100383.47;5040639;28;20530;-70
2023/02/11 01:23:08;;;;;;;20.35;12.25;;;;;;;-0.21;75.10;100380.59;5050272;28;20054;-70
2023/02/11 01:25:34;;;;;;;22.30;13.00;;;;;;;-0.21;75.45;100383.16;5034988;28;20033;-70
2023/02/11 01:27:59;;;;;;;22.98;13.60;;;;;;;-0.18;76.18;100374.59;5042556;28;20028;-69
2023/02/11 01:30:25;;;;;;;23.33;13.30;;;;;;;-0.18;75.75;100382.28;5038053;28;20659;-70
2023/02/11 01:32:50;;;;;;;25.10;13.68;;;;;;;-0.66;75.83;100327.06;5026525;28;20035;-70
2023/02/11 01:35:16;;;;;;;23.27;13.88;;;;;;;-0.33;75.83;100355.31;5053745;28;20052;-69
2023/02/11 01:37:41;;;;;;;23.83;13.73;;;;;;;-0.30;75.33;100364.63;5052180;28;20350;-70
2023/02/11 01:40:12;;;;;;;24.10;13.65;;;;;;;-0.17;74.73;100371.16;5039649;28;20098;-70
2023/02/11 01:42:38;;;;;;;25.30;14.18;;;;;;;-0.65;74.45;100297.22;5040366;28;20041;-70
2023/02/11 01:45:41;;;;;;;26.05;13.70;;;;;;;-0.23;75.21;100368.75;5053130;28;20033;-69
2023/02/11 01:48:09;;;;;;;28.60;14.45;;;;;;;-0.38;75.31;100367.34;5053356;28;20029;-69
2023/02/11 01:50:36;;;;;;;23.33;14.07;;;;;;;-0.41;75.33;100357.19;5033508;28;20118;-69
2023/02/11 01:57:20;;;;;;;24.42;13.25;;;;;;;-0.33;75.38;100369.78;5046835;28;20477;-70
2023/02/11 01:58:31;;;;;;;24.83;13.63;;;;;;;-0.94;76.01;100282.50;5044698;28;20055;-71
2023/02/11 02:00:57;;;;;;;25.40;14.70;;;;;;;-0.67;75.80;100329.63;5039715;28;20040;-69
2023/02/11 02:03:23;;;;;;;24.10;13.95;;;;;;;-0.42;76.30;100371.69;5053132;28;20028;-69
2023/02/11 02:05:59;;;;;;;24.73;14.65;;;;;;;-0.45;76.29;100376.03;5045178;28;20114;-70
2023/02/11 02:09:05;;;;;;;23.80;14.02;;;;;;;-0.41;76.82;100359.75;5036455;28;20029;-70
2023/02/11 02:11:30;;;;;;;25.63;13.88;;;;;;;-0.55;77.37;100361.75;5034110;28;20065;-70
2023/02/11 02:13:56;;;;;;;27.30;15.05;;;;;;;-0.85;76.37;100293.38;5034759;28;20083;-70
2023/02/11 02:16:25;;;;;;;22.88;13.15;;;;;;;-0.46;77.06;100359.81;5053934;28;20029;-70
2023/02/11 02:19:12;;;;;;;23.10;13.15;;;;;;;-0.46;76.29;100362.38;5060171;28;20048;-70
2023/02/11 02:22:31;;;;;;;24.75;13.48;;;;;;;-0.48;76.03;100351.34;5052967;28;20035;-70
2023/02/11 02:25:03;;;;;;;21.85;12.48;;;;;;;-0.40;75.48;100351.22;5008262;28;20072;-70
2023/02/11 02:27:52;;;;;;;25.13;13.38;;;;;;;-0.48;74.87;100346.25;5045132;28;20806;-70
2023/02/11 02:31:02;;;;;;;23.27;13.20;;;;;;;-0.48;76.76;100340.28;5047432;28;20577;-69
2023/02/11 02:33:43;;;;;;;28.10;13.35;;;;;;;-0.47;76.11;100331.78;5054609;28;20068;-70
2023/02/11 02:36:15;;;;;;;25.15;12.95;;;;;;;-0.37;75.57;100327.28;5050960;28;20362;-70
2023/02/11 02:39:04;;;;;;;21.92;13.35;;;;;;;-0.24;76.21;100326.13;5057025;28;20590;-70
2023/02/11 02:41:30;;;;;;;;;;;;;;;-0.30;76.09;100327.13;5036976;28;20021;-69
2023/02/11 02:43:56;;;;;;;20.25;11.13;;;;;;;-0.10;76.38;100318.16;5058041;28;20461;-70
2023/02/11 02:46:27;;;;;;;20.88;10.90;;;;;;;0.01;75.96;100323.03;5041711;28;20059;-70
2023/02/11 02:48:53;;;;;;;20.05;12.13;;;;;;;-0.01;76.62;100313.66;5048833;28;20134;-69
2023/02/11 02:51:53;;;;;;;22.65;12.55;;;;;;;0.16;76.93;100322.66;5038104;28;20049;-70
2023/02/11 02:54:37;;;;;;;20.35;12.13;;;;;;;0.15;76.76;100326.09;5059263;28;20033;-69
2023/02/11 02:57:14;;;;;;;17.70;10.02;;;;;;;0.21;77.31;100317.44;5058896;28;20104;-70
2023/02/11 02:59:48;;;;;;;20.13;10.90;;;;;;;0.24;77.45;100318.22;5045088;28;20037;-70
2023/02/11 03:02:25;;;;;;;21.95;11.07;;;;;;;0.11;77.00;100298.91;5054418;28;20062;-68
2023/02/11 03:04:56;;;;;;;20.10;11.88;;;;;;;0.16;77.20;100299.63;5058410;28;20149;-68
2023/02/11 03:07:28;;;;;;;22.67;10.63;;;;;;;0.23;76.92;100303.72;5036516;28;20127;-68
2023/02/11 03:10:01;;;;;;;21.45;10.68;;;;;;;0.22;77.14;100302.06;5057734;28;20139;-68
2023/02/11 03:12:29;;;;;;;20.00;11.57;;;;;;;0.24;75.94;100291.75;5052654;28;20734;-69
2023/02/11 03:14:54;;;;;;;20.30;11.68;;;;;;;0.24;76.14;100304.56;5053233;28;20998;-69
2023/02/11 03:17:22;;;;;;;21.38;12.32;;;;;;;0.15;75.66;100296.25;5053471;28;20032;-69
2023/02/11 03:19:49;;;;;;;20.75;11.25;;;;;;;0.12;75.20;100300.59;5044219;28;20135;-69
2023/02/11 03:22:36;;;;;;;19.80;11.38;;;;;;;-0.31;75.17;100225.75;5045887;28;20086;-69
2023/02/11 03:25:02;;;;;;;21.05;11.65;;;;;;;0.18;75.42;100301.28;5058606;28;20037;-68
2023/02/11 03:27:38;;;;;;;20.02;11.30;;;;;;;0.19;74.97;100302.13;5054447;28;20563;-68
2023/02/11 03:30:15;;;;;;;22.98;11.50;;;;;;;0.13;74.06;100300.56;5053090;28;20021;-69
2023/02/11 03:32:47;;;;;;;19.25;11.20;;;;;;;-0.01;73.98;100277.84;5036319;28;20425;-69
2023/02/11 03:35:15;;;;;;;21.48;12.75;;;;;;;0.07;73.70;100280.22;5060716;28;20029;-69
2023/02/11 03:37:50;;;;;;;20.58;11.45;;;;;;;0.11;74.13;100292.09;5056075;28;20509;-69
2023/02/11 03:40:22;;;;;;;21.23;11.13;;;;;;;-0.30;74.16;100222.31;5034000;28;20101;-69
2023/02/11 03:43:02;;;;;;;20.95;11.43;;;;;;;0.18;73.59;100296.19;5034356;28;20040;-69
2023/02/11 03:45:28;;;;;;;20.25;11.00;;;;;;;0.23;73.32;100282.41;5049983;28;20024;-69
2023/02/11 03:47:59;;;;;;;21.27;11.52;;;;;;;0.25;72.92;100280.66;5058582;28;20072;-69
2023/02/11 03:50:27;;;;;;;18.35;10.40;;;;;;;0.14;73.23;100268.13;5069383;28;20116;-69
2023/02/11 03:52:53;;;;;;;17.10;10.30;;;;;;;0.24;73.14;100284.94;5054459;28;20461;-69
2023/02/11 03:55:20;;;;;;;18.05;9.70;;;;;;;0.22;72.55;100285.84;5057980;28;20115;-69
2023/02/11 03:57:46;;;;;;;18.75;10.48;;;;;;;0.18;72.54;100275.72;5037856;28;20040;-69
2023/02/11 04:00:12;;;;;;;19.60;10.30;;;;;;;-0.21;73.01;100211.03;5058196;28;20105;-69
2023/02/11 04:02:39;;;;;;;18.10;10.27;;;;;;;0.23;73.59;100277.31;5042299;28;20368;-68
2023/02/11 04:05:05;;;;;;;21.30;10.23;;;;;;;0.14;73.56;100256.19;5037598;28;20040;-69
2023/02/11 04:07:31;;;;;;;19.48;10.85;;;;;;;-0.21;72.82;100199.06;5038690;28;20036;-69
2023/02/11 04:09:57;;;;;;;21.08;11.02;;;;;;;0.24;73.02;100264.47;5038762;28;20118;-69
2023/02/11 04:12:22;;;;;;;17.65;10.20;;;;;;;0.19;72.33;100246.66;5039848;28;20028;-69
2023/02/11 04:14:48;;;;;;;19.00;9.45;;;;;;;0.29;73.21;100264.34;5042472;28;20074;-69
2023/02/11 04:17:13;;;;;;;19.17;9.80;;;;;;;0.30;72.30;100266.03;5035341;28;20211;-69
2023/02/11 04:19:38;;;;;;;19.27;10.60;;;;;;;0.35;72.49;100257.38;5061248;28;20040;-69
2023/02/11 04:22:04;;;;;;;16.65;9.32;;;;;;;0.24;73.28;100250.81;5036862;28;20120;-69
2023/02/11 04:24:30;;;;;;;19.75;10.43;;;;;;;-0.09;73.83;100207.31;5044848;28;20124;-69
2023/02/11 04:26:55;;;;;;;17.38;9.98;;;;;;;0.33;73.43;100248.06;5059721;28;20989;-69
2023/02/11 04:29:21;;;;;;;18.40;10.45;;;;;;;0.25;73.04;100240.56;5034563;28;20045;-69
2023/02/11 04:31:47;;;;;;;16.90;10.25;;;;;;;0.29;72.92;100251.56;5055673;28;20039;-69
2023/02/11 04:34:12;;;;;;;17.67;9.60;;;;;;;0.26;73.18;100243.97;5039994;28;20025;-68
2023/02/11 04:36:38;;;;;;;18.38;10.57;;;;;;;0.27;72.85;100240.53;5057199;28;20016;-69
2023/02/11 04:39:03;;;;;;;17.33;9.77;;;;;;;0.31;73.40;100247.22;5056862;28;20040;-68
2023/02/11 04:41:29;;;;;;;15.88;9.07;;;;;;;0.29;73.45;100243.88;5042014;28;20738;-69
2023/02/11 04:43:54;;;;;;;16.83;9.85;;;;;;;0.08;74.06;100232.50;5052233;28;20040;-69
2023/02/11 04:46:20;;;;;;;15.98;9.13;;;;;;;-0.08;73.88;100197.06;5040701;28;20028;-69
2023/02/11 04:48:45;;;;;;;17.27;9.80;;;;;;;-0.16;74.45;100177.69;5039122;28;20094;-69
2023/02/11 04:51:11;;;;;;;19.77;10.90;;;;;;;0.14;74.24;100250.22;5055466;28;20029;-69
2023/02/11 04:53:36;;;;;;;19.10;10.65;;;;;;;-0.16;74.43;100170.84;5052315;28;20669;-70
2023/02/11 04:56:02;;;;;;;22.00;9.63;;;;;;;0.26;74.43;100232.00;5048155;28;20107;-69
2023/02/11 04:58:27;;;;;;;17.58;9.98;;;;;;;0.21;74.52;100226.16;5043526;28;20032;-68
2023/02/11 05:00:53;;;;;;;20.27;9.15;;;;;;;-0.13;73.82;100169.91;5050301;28;20028;-70
2023/02/11 05:03:18;;;;;;;16.02;9.55;;;;;;;0.29;73.90;100228.53;5055932;28;20794;-68
2023/02/11 05:05:43;;;;;;;17.30;9.57;;;;;;;0.14;73.94;100217.81;5059452;28;20036;-68
2023/02/11 05:08:10;;;;;;;16.92;9.43;;;;;;;0.15;72.63;100227.16;5039057;28;20091;-68
2023/02/11 05:10:35;;;;;;;18.05;9.63;;;;;;;0.19;73.19;100236.44;5051580;28;20118;-69
2023/02/11 05:13:01;;;;;;;19.55;10.20;;;;;;;0.20;73.57;100232.16;5038266;28;20040;-69
2023/02/11 05:15:27;;;;;;;14.73;8.32;;;;;;;0.30;72.87;100240.44;5059840;28;20123;-69
2023/02/11 05:17:53;;;;;;;16.88;9.02;;;;;;;0.23;73.75;100233.81;5030214;28;20044;-68
2023/02/11 05:20:19;;;;;;;19.77;10.75;;;;;;;0.36;73.98;100227.47;5028190;28;20943;-68
2023/02/11 05:22:45;;;;;;;15.48;9.25;;;;;;;0.44;73.58;100224.72;5055605;28;20103;-69
2023/02/11 05:25:10;;;;;;;16.20;9.32;;;;;;;0.34;73.87;100227.53;5051391;28;20114;-68
2023/02/11 05:27:36;;;;;;;16.67;9.68;;;;;;;0.34;73.62;100230.06;5033343;28;20040;-69
2023/02/11 05:30:01;;;;;;;16.38;8.80;;;;;;;0.18;74.73;100228.78;5042127;28;20085;-68
2023/02/11 05:32:27;;;;;;;18.45;10.00;;;;;;;0.15;75.50;100221.22;5042472;28;20047;-69
2023/02/11 05:34:52;;;;;;;16.88;9.63;;;;;;;0.17;75.43;100217.72;5056901;28;20035;-68
2023/02/11 05:37:18;;;;;;;20.70;9.30;;;;;;;0.10;75.63;100220.50;5031251;28;20037;-69
2023/02/11 05:39:43;;;;;;;17.60;9.38;;;;;;;-0.39;76.47;100143.28;5053694;28;20047;-69
2023/02/11 05:42:08;;;;;;;17.85;9.38;;;;;;;0.00;76.92;100212.22;5049903;28;20051;-68
2023/02/11 05:44:34;;;;;;;15.00;8.68;;;;;;;0.13;76.55;100230.66;5058408;28;20044;-69
2023/02/11 05:46:59;;;;;;;17.60;8.80;;;;;;;0.15;76.43;100227.16;5052397;28;20516;-69
2023/02/11 05:49:25;;;;;;;15.82;8.93;;;;;;;0.15;76.37;100232.28;5039241;28;20082;-69
2023/02/11 05:51:50;;;;;;;14.85;8.55;;;;;;;-0.20;75.37;100161.59;5051309;28;20059;-69
2023/02/11 05:54:16;;;;;;;18.25;9.52;;;;;;;0.21;75.79;100223.59;5043559;28;20025;-69
2023/02/11 05:56:41;;;;;;;17.70;9.48;;;;;;;-0.59;75.43;100102.91;5046209;28;20024;-69
2023/02/11 05:59:07;;;;;;;16.83;8.98;;;;;;;0.07;75.60;100220.56;5033668;28;20515;-69
2023/02/11 06:01:33;;;;;;;16.65;8.88;;;;;;;0.09;75.04;100217.09;5047626;28;20489;-70
2023/02/11 06:03:58;;;;;;;17.75;8.98;;;;;;;-0.01;75.11;100216.47;5044651;28;20890;-70
2023/02/11 06:06:24;;;;;;;14.43;7.25;;;;;;;0.07;75.03;100203.50;5028430;28;20052;-70
2023/02/11 06:08:49;;;;;;;14.85;7.85;;;;;;;0.08;74.66;100207.75;5035010;28;20074;-71
2023/02/11 06:11:16;;;;;;;15.18;8.38;;;;;;;0.01;74.34;100195.97;5046383;28;20131;-70
2023/02/11 06:13:41;;;;;;;14.63;8.45;;;;;;;0.05;74.66;100199.31;5032070;28;20358;-70
2023/02/11 06:16:07;;;;;;;13.68;7.80;;;;;;;-0.04;74.71;100191.00;5037660;28;20051;-71
2023/02/11 06:18:32;;;;;;;16.00;7.93;;;;;;;0.05;73.70;100202.69;5051619;28;20507;-70
2023/02/11 06:20:58;;;;;;;16.67;8.25;;;;;;;0.06;73.21;100194.16;5033199;28;20727;-70
2023/02/11 06:23:24;;;;;;;15.38;8.32;;;;;;;-0.17;73.45;100143.59;5038260;28;20571;-71
2023/02/11 06:25:50;;;;;;;14.88;7.60;;;;;;;0.13;72.49;100210.19;5054409;28;20120;-70
2023/02/11 06:28:15;;;;;;;14.93;6.80;;;;;;;-0.02;71.70;100178.16;5042236;28;20111;-70
2023/02/11 06:30:41;;;;;;;14.32;7.88;;;;;;;0.12;71.48;100217.00;5036128;28;20035;-70
2023/02/11 06:33:06;;;;;;;13.77;7.78;;;;;;;0.19;70.70;100208.28;5031587;28;20067;-70
2023/02/11 06:35:34;;;;;;;13.85;7.32;;;;;;;-0.01;70.77;100187.50;5051399;28;20043;-70
2023/02/11 06:37:59;;;;;;;18.45;7.10;;;;;;;-0.01;71.53;100196.00;5048494;28;20079;-70
2023/02/11 06:40:25;;;;;;;15.57;7.38;;;;;;;0.10;71.62;100190.63;5062828;28;20029;-68
2023/02/11 06:42:50;;;;;;;14.05;7.40;;;;;;;0.13;71.76;100197.41;5033264;28;20114;-68
2023/02/11 06:45:16;;;;;;;14.52;7.35;;;;;;;0.08;72.14;100196.69;5054455;28;20032;-68
2023/02/11 06:47:41;;;;;;;15.73;8.50;;;;;;;0.15;71.32;100208.44;5037158;28;20473;-69
2023/02/11 06:50:10;;;;;;;12.68;7.43;;;;;;;0.18;71.76;100204.06;5048714;28;20043;-69
2023/02/11 06:52:35;;;;;;;14.02;6.80;;;;;;;0.08;71.96;100197.50;5051533;28;20409;-68
2023/02/11 06:55:01;;;;;;;12.50;6.85;;;;;;;0.13;72.04;100203.34;5038083;28;20477;-69
2023/02/11 06:57:27;;;;;;;13.35;7.57;;;;;;;0.10;71.71;100198.31;5039710;28;20028;-69
2023/02/11 06:59:52;;;;;;;13.48;6.95;;;;;;;0.03;72.02;100176.31;5039424;28;20164;-68
2023/02/11 07:02:18;;;;;;;11.80;6.53;;;;;;;0.15;71.62;100195.63;5049125;28;20485;-68
2023/02/11 07:04:43;;;;;;;14.07;6.70;;;;;;;0.24;71.96;100197.97;5041725;28;20494;-68
2023/02/11 07:07:08;;;;;;;12.73;7.00;;;;;;;0.21;73.03;100184.41;5050828;28;20028;-68
2023/02/11 07:09:34;;;;;;;13.98;7.35;;;;;;;0.29;71.92;100195.25;5054333;28;20872;-68
2023/02/11 07:11:59;;;;;;;14.00;6.68;;;;;;;0.41;73.29;100201.78;5077158;28;20036;-69
2023/02/11 07:14:25;;;;;;;13.95;7.50;;;;;;;0.19;73.76;100192.13;5074171;28;20166;-68
2023/02/11 07:16:50;;;;;;;16.40;7.25;;;;;;;0.27;73.89;100194.47;5043059;28;20035;-68
2023/02/11 07:19:16;;;;;;;13.35;7.15;;;;;;;0.21;73.42;100169.06;5049094;28;20035;-69
2023/02/11 07:21:41;;;;;;;15.98;7.30;;;;;;;0.48;73.97;100204.13;5057279;28;20107;-69
2023/02/11 07:24:09;;;;;;;12.90;6.95;;;;;;;0.48;74.33;100213.53;5048867;28;20398;-69
2023/02/11 07:26:35;;;;;;;13.63;7.35;;;;;;;0.44;73.80;100199.97;5053660;28;20152;-69
2023/02/11 07:29:01;;;;;;;13.18;7.25;;;;;;;0.40;73.27;100216.28;5051157;28;20043;-69
2023/02/11 07:31:28;;;;;;;12.45;7.05;;;;;;;0.43;72.47;100217.94;5037776;28;20031;-69
2023/02/11 07:33:56;;;;;;;12.32;6.75;;;;;;;0.41;72.24;100224.81;5055965;28;20020;-69
2023/02/11 07:36:21;;;;;;;13.02;7.03;;;;;;;0.39;71.25;100217.19;5054802;28;20016;-69
2023/02/11 07:38:47;;;;;;;16.77;7.75;;;;;;;0.05;71.94;100161.78;5036296;28;20040;-69
2023/02/11 07:41:15;;;;;;;13.75;7.45;;;;;;;0.42;71.88;100222.22;5051797;28;20032;-69
2023/02/11 07:43:41;;;;;;;14.07;7.07;;;;;;;0.35;71.31;100223.25;5040609;28;20020;-69
2023/02/11 07:46:10;;;;;;;14.25;7.47;;;;;;;0.37;71.69;100236.84;5050374;28;20063;-69
2023/02/11 07:48:35;;;;;;;14.95;7.30;;;;;;;0.03;72.39;100194.22;5067658;28;20043;-69
2023/02/11 07:51:30;;;;;;;14.35;7.30;;;;;;;0.33;72.66;100225.03;5060250;28;20072;-69
2023/02/11 07:53:58;;;;;;;13.43;6.70;;;;;;;0.28;72.40;100222.56;5028878;28;20094;-69
2023/02/11 07:56:23;;;;;;;14.65;6.45;;;;;;;0.54;71.44;100228.72;5053198;28;20639;-69
2023/02/11 07:58:49;;;;;;;12.20;6.97;;;;;;;0.45;72.60;100234.09;5050477;28;20036;-69
2023/02/11 08:01:18;;;;;;;15.20;8.23;;;;;;;0.48;72.38;100247.63;5038379;28;20040;-68
2023/02/11 08:03:43;;;;;;;16.33;7.43;;;;;;;0.02;71.65;100161.88;5037473;28;20564;-69
2023/02/11 08:06:17;;;;;;;15.80;8.10;;;;;;;0.45;71.38;100239.19;5055407;28;20670;-69
2023/02/11 08:08:43;;;;;;;15.23;7.47;;;;;;;0.35;71.38;100218.16;5042131;28;20837;-69
2023/02/11 08:11:10;;;;;;;14.20;7.45;;;;;;;0.41;71.47;100217.97;5055927;28;20058;-70
2023/02/11 08:13:36;;;;;;;12.48;6.93;;;;;;;0.48;71.77;100210.97;5062081;28;20077;-69
2023/02/11 08:16:02;;;;;;;16.50;8.77;;;;;;;0.50;71.76;100227.97;5039514;28;20076;-69
2023/02/11 08:18:29;;;;;;;19.42;10.20;;;;;;;0.44;71.85;100211.91;5054533;28;20096;-69
2023/02/11 08:20:54;;;;;;;17.90;9.98;;;;;;;0.44;71.79;100205.09;5049953;28;20121;-69
2023/02/11 08:23:20;;;;;;;20.70;9.25;;;;;;;0.52;70.82;100215.94;5060021;28;20054;-69
2023/02/11 08:25:45;;;;;;;17.30;9.18;;;;;;;0.65;70.77;100230.97;5042396;28;20036;-69
2023/02/11 08:28:11;;;;;;;16.38;8.65;;;;;;;0.64;70.50;100219.91;5051867;28;20028;-69
2023/02/11 08:30:36;;;;;;;18.33;10.48;;;;;;;0.63;71.09;100230.19;5047786;28;20028;-71
2023/02/11 08:33:01;;;;;;;15.40;7.97;;;;;;;0.54;70.67;100215.91;5037001;28;20076;-69
2023/02/11 08:35:27;;;;;;;16.23;8.40;;;;;;;0.67;70.09;100221.53;5059018;28;20048;-69
2023/02/11 08:37:52;;;;;;;11.75;6.60;;;;;;;0.69;70.18;100210.34;5042345;28;20479;-69
2023/02/11 08:40:18;;;;;;;14.45;7.25;;;;;;;0.69;70.18;100214.66;5062364;28;20050;-69
2023/02/11 08:42:44;;;;;;;14.50;7.22;;;;;;;0.48;69.18;100157.22;5053517;28;20033;-69
2023/02/11 08:45:11;;;;;;;13.20;6.75;;;;;;;0.98;67.70;100208.69;5040973;28;20032;-69
2023/02/11 08:47:37;;;;;;;14.38;7.03;;;;;;;0.79;67.08;100141.00;5051428;28;20029;-68
2023/02/11 08:50:03;;;;;;;13.10;7.22;;;;;;;1.22;65.83;100208.84;5053309;28;20044;-69
2023/02/11 08:52:28;;;;;;;14.20;7.03;;;;;;;1.15;65.71;100198.78;5038160;28;20024;-69
2023/02/11 08:54:54;;;;;;;13.45;7.40;;;;;;;1.20;67.08;100198.63;5035501;28;20031;-69
2023/02/11 08:57:19;;;;;;;13.55;6.85;;;;;;;1.30;65.95;100204.34;5035151;28;20484;-69
2023/02/11 08:59:45;;;;;;;12.38;6.53;;;;;;;1.35;64.95;100202.47;5036550;28;20040;-69
2023/02/11 09:02:11;;;;;;;12.48;6.90;;;;;;;1.35;66.27;100205.00;5028961;28;20027;-69
2023/02/11 09:04:37;;;;;;;16.17;7.63;;;;;;;1.13;68.00;100157.00;5051551;28;20134;-69
2023/02/11 09:07:03;;;;;;;13.30;7.25;;;;;;;1.52;68.17;100204.50;5029084;28;20028;-69
2023/02/11 09:09:29;;;;;;;15.20;7.53;;;;;;;1.67;67.64;100203.19;5069832;28;20036;-69
2023/02/11 09:11:56;;;;;;;14.93;7.68;;;;;;;1.41;67.41;100145.06;5032912;28;20135;-69
2023/02/11 09:14:22;;;;;;;16.55;7.50;;;;;;;1.82;66.77;100189.03;5051544;28;20031;-69
2023/02/11 09:16:48;;;;;;;12.00;6.70;;;;;;;1.88;67.66;100197.34;5034076;28;20036;-69
2023/02/11 09:19:14;;;;;;;13.27;7.55;;;;;;;1.94;68.45;100198.88;5050855;28;20651;-69
2023/02/11 09:21:39;;;;;;;13.82;7.50;;;;;;;1.97;68.26;100196.22;5051711;28;20032;-69
2023/02/11 09:24:05;;;;;;;14.40;7.50;;;;;;;1.76;68.11;100161.03;5035584;28;20028;-69
2023/02/11 09:26:33;;;;;;;14.45;7.68;;;;;;;2.11;67.19;100211.97;5038660;28;20051;-69
2023/02/11 09:28:59;;;;;;;13.25;7.47;;;;;;;2.08;65.90;100204.38;5027560;28;20214;-69
2023/02/11 09:31:27;;;;;;;13.35;7.68;;;;;;;2.08;65.87;100204.38;5034737;28;20660;-69
2023/02/11 09:33:55;;;;;;;12.70;7.35;;;;;;;2.13;66.43;100208.53;5049105;28;20028;-69
2023/02/11 09:36:23;;;;;;;16.10;7.35;;;;;;;2.06;67.06;100197.63;5052458;28;20028;-69
2023/02/11 09:38:49;;;;;;;14.55;7.20;;;;;;;2.14;66.94;100198.22;5034585;28;20029;-69
2023/02/11 09:41:42;;;;;;;13.10;7.05;;;;;;;1.77;64.57;100149.84;5045994;28;20036;-69
2023/02/11 09:44:16;;;;;;;12.93;7.40;;;;;;;1.76;64.22;100146.47;5063220;28;20063;-69
2023/02/11 09:46:43;;;;;;;13.90;7.18;;;;;;;2.15;63.73;100217.84;5053086;28;20029;-69
2023/02/11 09:49:18;;;;;;;13.07;7.72;;;;;;;2.29;63.39;100217.38;5055148;28;20024;-69
2023/02/11 09:51:48;;;;;;;12.02;6.82;;;;;;;2.21;63.92;100221.91;5037265;28;20028;-69
2023/02/11 09:54:22;;;;;;;13.13;7.32;;;;;;;2.24;64.60;100216.69;5037519;28;20028;-69
2023/02/11 09:56:47;;;;;;;14.02;7.75;;;;;;;2.24;64.01;100217.53;5036790;28;20032;-69
2023/02/11 09:59:14;;;;;;;14.60;7.45;;;;;;;2.24;64.27;100225.22;5055598;28;20032;-69
2023/02/11 10:01:39;;;;;;;17.15;7.70;;;;;;;2.17;64.89;100207.53;5051829;28;20116;-69
2023/02/11 10:04:26;;;;;;;13.07;7.00;;;;;;;1.95;63.70;100167.19;5065119;28;20081;-69
2023/02/11 10:06:53;;;;;;;12.75;7.45;;;;;;;2.37;64.33;100222.22;5054399;28;20047;-68
2023/02/11 10:09:40;;;;;;;17.25;8.15;;;;;;;2.51;64.06;100222.59;5035227;28;20112;-68
2023/02/11 10:12:27;;;;;;;12.60;7.45;;;;;;;2.72;63.68;100230.41;5071582;28;20033;-67
2023/02/11 10:15:19;;;;;;;12.43;6.82;;;;;;;2.80;56.48;100231.00;5071847;28;20028;-67
2023/02/11 10:17:59;;;;;;;12.27;6.03;;;;;;;2.93;54.33;100219.38;5054948;28;20044;-67
2023/02/11 10:20:32;;;;;;;12.23;6.35;;;;;;;3.06;51.76;100220.56;5067116;28;20139;-67
2023/02/11 10:23:02;;;;;;;11.82;6.97;;;;;;;2.84;53.74;100151.16;5056605;28;20101;-67
2023/02/11 10:25:44;;;;;;;11.80;5.72;;;;;;;3.35;50.20;100222.94;5034703;28;20062;-67
2023/02/11 10:28:16;;;;;;;10.90;5.28;;;;;;;3.33;47.76;100217.03;5041049;28;20036;-67
2023/02/11 10:30:58;;;;;;;12.65;5.15;;;;;;;3.33;50.52;100209.31;5052276;28;20060;-67
2023/02/11 10:33:31;;;;;;;12.40;5.35;;;;;;;3.53;50.92;100195.69;5036954;28;20028;-67
2023/02/11 10:35:57;;;;;;;10.18;5.63;;;;;;;3.08;49.26;100146.84;5040780;28;20527;-68
2023/02/11 10:38:23;;;;;;;10.05;5.32;;;;;;;3.38;49.19;100189.41;5053999;28;20365;-68
2023/02/11 10:40:49;;;;;;;11.20;5.30;;;;;;;3.43;47.41;100205.47;5069997;28;20435;-68
2023/02/11 10:43:16;;;;;;;11.85;5.80;;;;;;;3.51;50.47;100208.59;5037925;28;20043;-68
2023/02/11 10:45:53;;;;;;;11.50;5.28;;;;;;;3.44;48.17;100202.84;5069493;28;20024;-68
2023/02/11 10:48:54;;;;;;;10.95;5.03;;;;;;;3.42;47.39;100196.94;5048686;28;20135;-68
2023/02/11 10:51:25;;;;;;;10.48;4.93;;;;;;;3.42;50.99;100196.94;4949796;28;20043;-68
2023/02/11 10:54:02;;;;;;;12.65;6.15;;;;;;;3.46;52.33;100198.47;5048378;28;20071;-68
2023/02/11 10:56:52;;;;;;;11.55;5.57;;;;;;;3.44;53.43;100191.72;5048618;28;20086;-68
2023/02/11 10:59:28;;;;;;;12.43;6.00;;;;;;;3.44;50.10;100187.41;5045571;28;20784;-68
2023/02/11 11:02:00;;;;;;;10.93;5.60;;;;;;;3.46;48.17;100183.03;5048586;28;20039;-68
2023/02/11 11:04:28;;;;;;;11.00;4.80;;;;;;;3.64;46.01;100178.91;5037945;28;20418;-68
2023/02/11 11:06:54;;;;;;;10.73;5.28;;;;;;;3.83;47.61;100176.44;5069862;28;20036;-68
2023/02/11 11:09:29;;;;;;;11.80;5.88;;;;;;;3.89;47.45;100175.34;5070740;28;20043;-68
2023/02/11 11:11:55;;;;;;;10.02;5.07;;;;;;;3.99;47.88;100174.03;5051108;28;20068;-68
2023/02/11 11:14:27;;;;;;;13.82;5.78;;;;;;;4.09;47.15;100163.34;5049632;28;20039;-69
2023/02/11 11:16:53;;;;;;;11.48;5.28;;;;;;;4.17;46.71;100161.28;5057928;28;20078;-68
2023/02/11 11:19:23;;;;;;;10.90;5.40;;;;;;;4.22;45.41;100149.88;5044887;28;20028;-68
2023/02/11 11:21:54;;;;;;;8.98;4.95;;;;;;;4.22;50.29;100149.06;5056727;28;20042;-69
2023/02/11 11:24:21;;;;;;;10.15;5.55;;;;;;;4.22;49.53;100143.91;5045439;28;20024;-68
2023/02/11 11:26:50;;;;;;;11.20;5.50;;;;;;;4.15;49.38;100125.31;5068128;28;20036;-69
2023/02/11 11:29:19;;;;;;;11.40;5.13;;;;;;;3.75;47.67;100061.84;5054549;28;20467;-68